VTCP

Details ICAO VTCP (PRH)
Name Phrae
Region Thailand
Timezone Asia/Bangkok (UTC+7.0)
Plans Departing 2
Arriving 7
Stats Elevation 538 ft / 164 m (AMSL)
Location 18.132168° 100.164664°
Runways 1
Magnetic Variation 0.767° W
Sunrise 2018-05-24 22:45:11 UTC / 2018-05-25 05:45:11 Local
Sunset 2018-05-25 11:50:11 UTC / 2018-05-25 18:50:11 Local
Advertisement - Login to hide

Runways

ID Width Length Bearing (true) Bearing (mag) Surface Threshold Offset Overrun Length
01 98 ft / 30 m 4,968 ft / 1,514 m 5.52° 6.29° Asphalt 0 ft / 0 m 246 ft / 75 m
19 98 ft / 30 m 4,968 ft / 1,514 m 185.52° 186.29° Asphalt 0 ft / 0 m 246 ft / 75 m

Map

Weather


0- 5 10 15 20 25 30 35+ Temperature / ° C

Clouds and Precipitation
Forecast for 2018-05-25 12:00 UTC. Updated 2 hours ago

Ground ~20,000 ft ~40,000 ft Winds

METAR

Not found

TAF

TAF VTCP 251100Z 2512/2612 22005KT 9999 SCT035 TEMPO 2512/2518 VRB15G25KT 5000 TSRA FEW025CB BKN030

Frequencies

Tower 118.60 MHz TWR
Approach 120.10 MHz APP
Warning: Do not use this data for real-world aviation or navigation. No guarantee of current accuracy is given.